Lavaca Bay — WDF2105 — position and weather

sailwx.info

Track history (hours):
 
Tides and Currents Weather Stations Pressure Air Temp Water Temp Dewpoint Dewpoint Depression Visibility Wind Speed Wind Dir Waves Ship Positions

Lavaca Bay

Owner: Higman Barge Lines, Inc, Orange, TX. More information available from US FCC via Universal Licensing System and Coast Guard Vessel Documentation Center.

Last reported at 2016-May-26 15:26 UTC. Time now 2016-May-26 16:34 UTC.
Position N 29°49' W 093°59'.

Length 24 m; draft 3 m.

Type: Towing. MMSI: 367424940.

Date/timePositionNaut miles runAvg speedWind from/ knotsBaromVisibWave heightAir tempDewpointWater temp
2016-May-26 15:26N 29°49' W 093°59'2 1.9
2016-May-26 14:25N 29°51' W 093°58'1 1.7
2016-May-26 13:34N 29°49' W 093°58'  
2016-May-24 06:31N 29°50' W 093°59'6 0.8
2016-May-23 22:31N 29°54' W 093°54'4 3.9
2016-May-23 21:26N 29°58' W 093°52'  
2016-May-21 09:15N 29°50' W 093°59'1 0.6
2016-May-21 07:33N 29°49' W 093°59'5 5.3
2016-May-21 06:33N 29°45' W 094°04'5 4.7
2016-May-21 05:33N 29°42' W 094°08'11 4.9
2016-May-21 03:20N 29°37' W 094°19'4 4.5
2016-May-21 02:27N 29°36' W 094°24'  
Track history (hours):
 
Tides and Currents Weather Stations Pressure Air Temp Water Temp Dewpoint Dewpoint Depression Visibility Wind Speed Wind Dir Waves Ship Positions

Lavaca Bay

Owner: Higman Barge Lines, Inc, Orange, TX. More information available from US FCC via Universal Licensing System and Coast Guard Vessel Documentation Center.

Last reported at 2016-May-26 15:26 UTC. Time now 2016-May-26 16:34 UTC.
Position N 29°49' W 093°59'.

Length 24 m; draft 3 m.

Type: Towing. MMSI: 367424940.

Date/timePositionNaut miles runAvg speedWind from/ knotsBaromVisibWave heightAir tempDewpointWater temp
2016-May-26 15:26N 29°49' W 093°59'2 1.9
2016-May-26 14:25N 29°51' W 093°58'1 1.7
2016-May-26 13:34N 29°49' W 093°58'  
2016-May-24 06:31N 29°50' W 093°59'6 0.8
2016-May-23 22:31N 29°54' W 093°54'4 3.9
2016-May-23 21:26N 29°58' W 093°52'  
2016-May-21 09:15N 29°50' W 093°59'1 0.6
2016-May-21 07:33N 29°49' W 093°59'5 5.3
2016-May-21 06:33N 29°45' W 094°04'5 4.7
2016-May-21 05:33N 29°42' W 094°08'11 4.9
2016-May-21 03:20N 29°37' W 094°19'4 4.5
2016-May-21 02:27N 29°36' W 094°24'  

Dump ship's entire track history